createdAt,value
2018-12-16T00:04:52.275Z,97794.86
2018-12-16T00:09:56.354Z,97798.77
2018-12-16T00:15:00.429Z,97797.77
2018-12-16T00:20:05.555Z,97788.77
2018-12-16T00:25:09.827Z,97797.41
2018-12-16T00:30:13.921Z,97796.47
2018-12-16T00:35:18.010Z,97798.13
2018-12-16T00:40:22.069Z,97804.05
2018-12-16T00:45:26.136Z,97804.41
2018-12-16T00:50:30.193Z,97805.28
2018-12-16T00:55:34.577Z,97808.29
2018-12-16T01:00:38.699Z,97810.08
2018-12-16T01:05:42.770Z,97806.22
2018-12-16T01:10:46.839Z,97793.65
2018-12-16T01:15:51.258Z,97793.57
2018-12-16T01:20:55.336Z,97790.97
2018-12-16T01:25:59.418Z,97795.36
2018-12-16T01:31:03.582Z,97795.30
2018-12-16T01:36:07.658Z,97789.56
2018-12-16T01:41:11.723Z,97787.31
2018-12-16T01:46:15.801Z,97784.66
2018-12-16T01:51:19.869Z,97772.34
2018-12-16T01:56:23.946Z,97769.63
2018-12-16T02:01:28.209Z,97771.83
2018-12-16T02:06:32.285Z,97758.52
2018-12-16T02:11:36.355Z,97753.43
2018-12-16T02:16:40.421Z,97753.43
2018-12-16T02:21:44.493Z,97750.19
2018-12-16T02:26:48.565Z,97747.09
2018-12-16T02:31:52.642Z,97746.98
2018-12-16T02:36:56.702Z,97744.14
2018-12-16T02:42:00.767Z,97734.52
2018-12-16T02:47:04.865Z,97738.34
2018-12-16T02:52:08.929Z,97733.52
2018-12-16T02:57:13.010Z,97738.34
2018-12-16T03:02:17.254Z,97737.82
2018-12-16T03:07:21.322Z,97727.01
2018-12-16T03:12:25.387Z,97729.27
2018-12-16T03:17:29.549Z,97721.44
2018-12-16T03:22:33.610Z,97719.20
2018-12-16T03:27:37.785Z,97713.57
2018-12-16T03:32:41.880Z,97717.84
2018-12-16T03:37:46.036Z,97713.94
2018-12-16T03:42:50.094Z,97713.86
2018-12-16T03:47:54.304Z,97710.80
2018-12-16T03:52:58.369Z,97704.29
2018-12-16T03:58:02.447Z,97701.80
2018-12-16T04:03:06.518Z,97704.89
2018-12-16T04:08:10.587Z,97705.30
2018-12-16T04:13:14.657Z,97700.99
2018-12-16T04:18:18.878Z,97695.91
2018-12-16T04:23:27.438Z,97692.20
2018-12-16T04:28:29.224Z,97699.28
2018-12-16T04:33:33.299Z,97700.06
2018-12-16T04:38:37.439Z,97702.60
2018-12-16T04:43:41.517Z,97708.62
2018-12-16T04:48:45.585Z,97704.23
2018-12-16T04:53:49.658Z,97702.93
2018-12-16T04:58:53.727Z,97697.80
2018-12-16T05:03:57.797Z,97686.51
2018-12-16T05:09:01.997Z,97692.52
2018-12-16T05:14:06.070Z,97686.97
2018-12-16T05:19:10.134Z,97677.40
2018-12-16T05:24:14.398Z,97671.67
2018-12-16T05:29:18.479Z,97670.43
2018-12-16T05:34:22.558Z,97670.14
2018-12-16T05:39:26.631Z,97671.69
2018-12-16T05:44:30.802Z,97680.03
2018-12-16T05:49:34.880Z,97676.64
2018-12-16T05:54:38.949Z,97680.27
2018-12-16T05:59:43.026Z,97668.39
2018-12-16T06:04:47.214Z,97673.05
2018-12-16T06:09:51.290Z,97673.23
2018-12-16T06:14:55.370Z,97671.52
2018-12-16T06:19:59.450Z,97676.42
2018-12-16T06:25:03.532Z,97681.83
2018-12-16T06:30:07.754Z,97682.36
2018-12-16T06:35:11.868Z,97685.84
2018-12-16T06:40:15.933Z,97687.81
2018-12-16T06:45:20.216Z,97696.83
2018-12-16T06:50:24.482Z,97687.69
2018-12-16T06:55:28.557Z,97681.37
2018-12-16T07:00:32.653Z,97691.74
2018-12-16T07:05:36.754Z,97694.59
2018-12-16T07:10:40.842Z,97700.41
2018-12-16T07:15:44.923Z,97710.77
2018-12-16T07:20:48.997Z,97712.74
2018-12-16T07:25:53.075Z,97718.55
2018-12-16T07:30:57.158Z,97718.38
2018-12-16T07:36:01.252Z,97713.89
2018-12-16T07:41:05.371Z,97719.92
2018-12-16T07:46:09.546Z,97722.81
2018-12-16T07:51:14.110Z,97708.08
2018-12-16T07:56:18.275Z,97707.83
2018-12-16T08:01:22.405Z,97711.64
2018-12-16T08:06:26.483Z,97717.28
2018-12-16T08:11:30.547Z,97726.06
2018-12-16T08:16:34.874Z,97735.17
2018-12-16T08:21:39.113Z,97744.55
2018-12-16T08:26:43.186Z,97741.66
2018-12-16T08:31:48.066Z,97750.77
2018-12-16T08:36:52.181Z,97756.04
2018-12-16T08:41:56.350Z,97763.19
2018-12-16T08:47:00.431Z,97769.40
2018-12-16T08:52:04.517Z,97791.39
2018-12-16T08:57:08.570Z,97785.42
2018-12-16T09:02:12.649Z,97789.91
2018-12-16T09:07:16.735Z,97786.66
2018-12-16T09:12:21.764Z,97800.70
2018-12-16T09:17:25.897Z,97790.36
2018-12-16T09:22:30.016Z,97791.99
2018-12-16T09:27:34.096Z,97778.72
2018-12-16T09:32:38.205Z,97777.42
2018-12-16T09:37:42.281Z,97765.66
2018-12-16T09:42:46.370Z,97769.66
2018-12-16T09:47:50.446Z,97757.31
2018-12-16T09:52:54.610Z,97750.93
2018-12-16T09:57:58.666Z,97749.05
2018-12-16T10:03:02.773Z,97744.99
2018-12-16T10:08:06.963Z,97739.05
2018-12-16T10:13:11.025Z,97723.10
2018-12-16T10:18:15.097Z,97709.25
2018-12-16T10:23:19.171Z,97697.19
2018-12-16T10:28:23.242Z,97694.70
2018-12-16T10:33:27.334Z,97686.09
2018-12-16T10:38:31.438Z,97683.95
2018-12-16T10:43:35.591Z,97684.42
2018-12-16T10:48:39.657Z,97689.45
2018-12-16T10:53:43.734Z,97687.30
2018-12-16T10:58:47.790Z,97691.98
2018-12-16T11:03:51.854Z,97689.89
2018-12-16T11:08:56.114Z,97684.11
2018-12-16T11:14:00.183Z,97695.80
2018-12-16T11:19:04.239Z,97698.07
2018-12-16T11:24:08.566Z,97695.45
2018-12-16T11:29:12.639Z,97691.49
2018-12-16T11:34:16.709Z,97688.64
2018-12-16T11:39:20.787Z,97690.09
2018-12-16T11:44:24.829Z,97687.56
2018-12-16T11:49:29.013Z,97685.74
2018-12-16T11:54:33.077Z,97685.14
2018-12-16T11:59:37.141Z,97691.41
2018-12-16T12:04:41.201Z,97697.42
2018-12-16T12:09:45.270Z,97693.63
2018-12-16T12:14:49.333Z,97687.72
2018-12-16T12:19:53.393Z,97684.72
2018-12-16T12:24:57.458Z,97679.84
2018-12-16T12:30:01.523Z,97674.45
2018-12-16T12:35:06.075Z,97670.72
2018-12-16T12:40:10.154Z,97663.27
2018-12-16T12:45:14.228Z,97663.95
2018-12-16T12:50:18.298Z,97667.42
2018-12-16T12:55:26.789Z,97678.93
2018-12-16T13:00:28.438Z,97670.03
2018-12-16T13:05:36.971Z,97667.44
2018-12-16T13:10:38.574Z,97666.47
2018-12-16T13:15:42.645Z,97657.39
2018-12-16T13:53:26.827Z,97640.86
2018-12-16T13:58:31.190Z,97655.22
2018-12-16T14:03:35.314Z,97666.41
2018-12-16T14:21:51.775Z,97671.22
2018-12-16T14:26:56.006Z,97680.00
2018-12-16T14:32:00.120Z,97689.47
2018-12-16T14:37:04.258Z,97692.34
2018-12-16T14:42:08.490Z,97696.41
2018-12-16T14:47:12.617Z,97697.75
2018-12-16T14:52:16.742Z,97696.27
2018-12-16T14:57:20.974Z,97696.36
2018-12-16T15:02:25.054Z,97699.31
2018-12-16T15:07:29.403Z,97698.80
2018-12-16T15:12:33.573Z,97695.02
2018-12-16T15:17:42.837Z,97702.73
2018-12-16T15:22:43.978Z,97716.91
2018-12-16T15:27:48.109Z,97711.09
2018-12-16T15:32:52.236Z,97704.98
2018-12-16T15:37:56.325Z,97694.52
2018-12-16T15:43:00.508Z,97699.30
2018-12-16T15:48:04.623Z,97699.67
2018-12-16T15:53:08.756Z,97697.84
2018-12-16T15:58:12.989Z,97704.95
2018-12-16T16:03:17.077Z,97706.31
2018-12-16T16:08:21.252Z,97711.70
2018-12-16T16:13:25.375Z,97718.03
2018-12-16T16:18:29.501Z,97720.20
2018-12-16T16:23:33.629Z,97723.45
2018-12-16T16:28:37.862Z,97731.13
2018-12-16T16:33:41.950Z,97723.14
2018-12-16T16:38:46.019Z,97729.28
2018-12-16T16:43:50.162Z,97728.92
2018-12-16T16:48:54.275Z,97724.73
2018-12-16T16:53:58.390Z,97720.17
2018-12-16T16:59:02.542Z,97722.52
2018-12-16T17:04:06.622Z,97730.48
2018-12-16T17:09:10.718Z,97735.20
2018-12-16T17:14:15.005Z,97739.68
2018-12-16T17:19:19.678Z,97739.44
2018-12-16T17:24:23.795Z,97735.75
2018-12-16T17:29:27.929Z,97750.52
2018-12-16T17:34:32.055Z,97745.78
2018-12-16T17:39:36.184Z,97744.59
2018-12-16T17:44:40.307Z,97743.34
2018-12-16T17:49:44.439Z,97742.30
2018-12-16T17:54:48.566Z,97741.11
2018-12-16T17:59:52.810Z,97743.55
2018-12-16T18:04:56.926Z,97739.33
2018-12-16T18:10:01.257Z,97728.97
2018-12-16T18:15:08.101Z,97738.30
2018-12-16T18:20:12.286Z,97727.64
2018-12-16T18:25:16.430Z,97734.55
2018-12-16T18:30:20.544Z,97723.86
2018-12-16T18:35:24.669Z,97727.66
2018-12-16T18:40:31.416Z,97718.98
2018-12-16T18:45:36.985Z,97718.62
2018-12-16T18:50:41.368Z,97720.13
2018-12-16T18:55:45.604Z,97718.51
2018-12-16T19:00:49.872Z,97714.76
2018-12-16T19:05:54.069Z,97714.53
2018-12-16T19:10:58.199Z,97713.39
2018-12-16T19:16:02.331Z,97722.47
2018-12-16T19:21:08.156Z,97713.16
2018-12-16T19:26:12.225Z,97717.56
2018-12-16T19:31:16.354Z,97720.98
2018-12-16T19:36:20.586Z,97716.22
2018-12-16T19:41:24.713Z,97711.91
2018-12-16T19:46:28.846Z,97704.59
2018-12-16T19:51:32.988Z,97710.66
2018-12-16T19:56:37.521Z,97703.02
2018-12-16T20:01:41.763Z,97698.61
2018-12-16T20:06:46.693Z,97702.00
2018-12-16T20:11:50.769Z,97693.02
2018-12-16T20:16:54.954Z,97692.69
2018-12-16T20:21:59.077Z,97687.19
2018-12-16T20:27:03.205Z,97680.28
2018-12-16T20:32:07.338Z,97689.92
2018-12-16T20:37:11.430Z,97681.91
2018-12-16T20:42:15.591Z,97685.30
2018-12-16T20:47:19.721Z,97698.20
2018-12-16T20:52:23.830Z,97708.91
2018-12-16T20:57:27.978Z,97713.67
2018-12-16T21:02:32.317Z,97722.42
2018-12-16T21:07:36.454Z,97728.64
2018-12-16T21:12:46.104Z,97719.56
2018-12-16T21:17:56.069Z,97725.76
2018-12-16T21:23:00.298Z,97744.32
2018-12-16T21:28:04.629Z,97749.47
2018-12-16T21:33:09.235Z,97762.02
2018-12-16T21:38:13.402Z,97761.26
2018-12-16T21:43:17.534Z,97769.41
2018-12-16T21:48:21.657Z,97769.03
2018-12-16T21:53:25.790Z,97772.97
2018-12-16T21:58:30.225Z,97777.27
2018-12-16T22:03:34.454Z,97770.38
2018-12-16T22:08:39.016Z,97762.64
2018-12-16T22:13:43.182Z,97757.03
2018-12-16T22:18:47.314Z,97751.53
2018-12-16T22:23:51.496Z,97749.11
2018-12-16T22:28:55.613Z,97749.20
2018-12-16T22:33:59.737Z,97741.55
2018-12-16T22:39:05.817Z,97731.64
2018-12-16T22:44:10.057Z,97746.02
2018-12-16T22:49:14.195Z,97745.27
2018-12-16T22:54:18.314Z,97758.39
2018-12-16T22:59:23.773Z,97750.44
2018-12-16T23:04:32.112Z,97747.59
2018-12-16T23:09:36.224Z,97735.64
2018-12-16T23:14:40.454Z,97740.78
2018-12-16T23:19:46.634Z,97755.69
2018-12-16T23:24:51.169Z,97764.19
2018-12-16T23:29:55.298Z,97761.59
2018-12-16T23:34:59.430Z,97758.96
2018-12-16T23:40:04.274Z,97761.39
2018-12-16T23:45:08.505Z,97746.19
2018-12-16T23:50:12.638Z,97740.97
2018-12-16T23:55:16.749Z,97744.09
